sensor_id;sensor_type;location;lat;lon;timestamp;P1;durP1;ratioP1;P2;durP2;ratioP2
11042;SDS011;5574;48.786;10.120;2023-02-23T00:01:48;11.23;;;7.83;;
11042;SDS011;5574;48.786;10.120;2023-02-23T00:04:16;10.17;;;7.80;;
11042;SDS011;5574;48.786;10.120;2023-02-23T00:06:43;9.50;;;8.03;;
11042;SDS011;5574;48.786;10.120;2023-02-23T00:09:10;15.20;;;9.20;;
11042;SDS011;5574;48.786;10.120;2023-02-23T00:11:47;12.27;;;9.53;;
11042;SDS011;5574;48.786;10.120;2023-02-23T00:14:13;18.93;;;12.43;;
11042;SDS011;5574;48.786;10.120;2023-02-23T00:16:40;13.37;;;9.33;;
11042;SDS011;5574;48.786;10.120;2023-02-23T00:19:09;14.00;;;9.13;;
11042;SDS011;5574;48.786;10.120;2023-02-23T00:21:39;14.60;;;11.47;;
11042;SDS011;5574;48.786;10.120;2023-02-23T00:24:08;13.97;;;11.23;;
11042;SDS011;5574;48.786;10.120;2023-02-23T00:26:37;22.77;;;17.50;;
11042;SDS011;5574;48.786;10.120;2023-02-23T00:29:05;12.83;;;9.80;;
11042;SDS011;5574;48.786;10.120;2023-02-23T00:31:33;18.50;;;13.47;;
11042;SDS011;5574;48.786;10.120;2023-02-23T00:34:02;14.90;;;11.63;;
11042;SDS011;5574;48.786;10.120;2023-02-23T00:36:30;18.83;;;13.40;;
11042;SDS011;5574;48.786;10.120;2023-02-23T00:39:00;10.63;;;8.90;;
11042;SDS011;5574;48.786;10.120;2023-02-23T00:41:31;11.77;;;8.83;;
11042;SDS011;5574;48.786;10.120;2023-02-23T00:43:58;9.73;;;8.30;;
11042;SDS011;5574;48.786;10.120;2023-02-23T00:46:26;12.87;;;8.27;;
11042;SDS011;5574;48.786;10.120;2023-02-23T00:48:55;13.70;;;9.60;;
11042;SDS011;5574;48.786;10.120;2023-02-23T00:51:23;18.10;;;12.37;;
11042;SDS011;5574;48.786;10.120;2023-02-23T00:53:54;13.73;;;9.80;;
11042;SDS011;5574;48.786;10.120;2023-02-23T00:56:23;20.83;;;13.53;;
11042;SDS011;5574;48.786;10.120;2023-02-23T00:58:51;16.60;;;10.93;;
11042;SDS011;5574;48.786;10.120;2023-02-23T01:01:18;14.17;;;9.60;;
11042;SDS011;5574;48.786;10.120;2023-02-23T01:03:45;11.40;;;9.20;;
11042;SDS011;5574;48.786;10.120;2023-02-23T01:06:14;11.17;;;8.83;;
11042;SDS011;5574;48.786;10.120;2023-02-23T01:08:42;10.70;;;8.23;;
11042;SDS011;5574;48.786;10.120;2023-02-23T01:11:13;10.47;;;8.63;;
11042;SDS011;5574;48.786;10.120;2023-02-23T01:13:43;11.63;;;9.27;;
11042;SDS011;5574;48.786;10.120;2023-02-23T01:16:13;14.23;;;9.80;;
11042;SDS011;5574;48.786;10.120;2023-02-23T01:18:42;13.67;;;9.83;;
11042;SDS011;5574;48.786;10.120;2023-02-23T01:21:13;10.43;;;8.87;;
11042;SDS011;5574;48.786;10.120;2023-02-23T01:23:41;10.77;;;8.63;;
11042;SDS011;5574;48.786;10.120;2023-02-23T01:26:13;15.33;;;9.70;;
11042;SDS011;5574;48.786;10.120;2023-02-23T01:28:41;12.30;;;9.37;;
11042;SDS011;5574;48.786;10.120;2023-02-23T01:31:09;12.50;;;9.30;;
11042;SDS011;5574;48.786;10.120;2023-02-23T01:33:35;13.77;;;10.03;;
11042;SDS011;5574;48.786;10.120;2023-02-23T01:36:02;16.20;;;11.53;;
11042;SDS011;5574;48.786;10.120;2023-02-23T01:38:29;19.13;;;11.47;;
11042;SDS011;5574;48.786;10.120;2023-02-23T01:40:56;16.33;;;12.37;;
11042;SDS011;5574;48.786;10.120;2023-02-23T01:43:23;18.80;;;12.20;;
11042;SDS011;5574;48.786;10.120;2023-02-23T01:45:50;17.03;;;11.67;;
11042;SDS011;5574;48.786;10.120;2023-02-23T01:48:21;14.90;;;10.93;;
11042;SDS011;5574;48.786;10.120;2023-02-23T01:50:52;14.20;;;9.53;;
11042;SDS011;5574;48.786;10.120;2023-02-23T01:53:20;11.87;;;9.27;;
11042;SDS011;5574;48.786;10.120;2023-02-23T01:55:48;12.90;;;9.60;;
11042;SDS011;5574;48.786;10.120;2023-02-23T01:58:19;14.33;;;9.90;;
11042;SDS011;5574;48.786;10.120;2023-02-23T02:00:47;11.77;;;9.30;;
11042;SDS011;5574;48.786;10.120;2023-02-23T02:03:18;13.70;;;9.70;;
11042;SDS011;5574;48.786;10.120;2023-02-23T02:05:51;11.97;;;9.77;;
11042;SDS011;5574;48.786;10.120;2023-02-23T02:08:20;14.73;;;9.50;;
11042;SDS011;5574;48.786;10.120;2023-02-23T02:10:49;14.13;;;10.20;;
11042;SDS011;5574;48.786;10.120;2023-02-23T02:13:19;12.20;;;9.63;;
11042;SDS011;5574;48.786;10.120;2023-02-23T02:15:56;14.03;;;9.53;;
11042;SDS011;5574;48.786;10.120;2023-02-23T02:18:47;13.40;;;9.37;;
11042;SDS011;5574;48.786;10.120;2023-02-23T02:21:29;12.63;;;9.87;;
11042;SDS011;5574;48.786;10.120;2023-02-23T02:24:28;12.40;;;9.97;;
11042;SDS011;5574;48.786;10.120;2023-02-23T02:27:23;13.00;;;9.97;;
11042;SDS011;5574;48.786;10.120;2023-02-23T02:30:06;12.70;;;9.40;;
11042;SDS011;5574;48.786;10.120;2023-02-23T02:33:10;14.60;;;9.23;;
11042;SDS011;5574;48.786;10.120;2023-02-23T02:36:27;11.40;;;9.43;;
11042;SDS011;5574;48.786;10.120;2023-02-23T02:39:28;14.23;;;9.90;;
11042;SDS011;5574;48.786;10.120;2023-02-23T02:42:11;15.73;;;9.60;;
11042;SDS011;5574;48.786;10.120;2023-02-23T02:44:48;12.27;;;8.53;;
11042;SDS011;5574;48.786;10.120;2023-02-23T02:47:21;14.30;;;10.00;;
11042;SDS011;5574;48.786;10.120;2023-02-23T02:49:55;13.10;;;9.10;;
11042;SDS011;5574;48.786;10.120;2023-02-23T02:52:32;13.47;;;9.57;;
11042;SDS011;5574;48.786;10.120;2023-02-23T02:55:06;12.40;;;10.03;;
11042;SDS011;5574;48.786;10.120;2023-02-23T02:57:40;13.73;;;10.10;;
11042;SDS011;5574;48.786;10.120;2023-02-23T03:00:11;11.67;;;10.00;;
11042;SDS011;5574;48.786;10.120;2023-02-23T03:02:59;14.07;;;9.70;;
11042;SDS011;5574;48.786;10.120;2023-02-23T03:05:44;12.73;;;9.53;;
11042;SDS011;5574;48.786;10.120;2023-02-23T03:08:32;14.90;;;9.23;;
11042;SDS011;5574;48.786;10.120;2023-02-23T03:11:23;14.23;;;9.83;;
11042;SDS011;5574;48.786;10.120;2023-02-23T03:14:21;14.00;;;9.87;;
11042;SDS011;5574;48.786;10.120;2023-02-23T03:17:14;12.27;;;9.73;;
11042;SDS011;5574;48.786;10.120;2023-02-23T03:20:09;13.13;;;10.00;;
11042;SDS011;5574;48.786;10.120;2023-02-23T03:23:02;15.13;;;10.47;;
11042;SDS011;5574;48.786;10.120;2023-02-23T03:25:56;13.60;;;10.10;;
11042;SDS011;5574;48.786;10.120;2023-02-23T03:28:47;12.43;;;9.47;;
11042;SDS011;5574;48.786;10.120;2023-02-23T03:31:38;15.10;;;10.30;;
11042;SDS011;5574;48.786;10.120;2023-02-23T03:34:32;14.23;;;10.20;;
11042;SDS011;5574;48.786;10.120;2023-02-23T03:37:24;12.63;;;10.23;;
11042;SDS011;5574;48.786;10.120;2023-02-23T03:40:15;13.63;;;10.80;;
11042;SDS011;5574;48.786;10.120;2023-02-23T03:43:02;12.17;;;9.87;;
11042;SDS011;5574;48.786;10.120;2023-02-23T03:45:54;14.77;;;10.70;;
11042;SDS011;5574;48.786;10.120;2023-02-23T03:48:40;12.80;;;9.97;;
11042;SDS011;5574;48.786;10.120;2023-02-23T03:51:28;14.83;;;10.03;;
11042;SDS011;5574;48.786;10.120;2023-02-23T03:54:15;13.77;;;10.33;;
11042;SDS011;5574;48.786;10.120;2023-02-23T03:57:04;12.27;;;10.07;;
11042;SDS011;5574;48.786;10.120;2023-02-23T03:59:52;12.80;;;10.23;;
11042;SDS011;5574;48.786;10.120;2023-02-23T04:02:44;14.43;;;9.97;;
11042;SDS011;5574;48.786;10.120;2023-02-23T04:05:32;12.50;;;10.20;;
11042;SDS011;5574;48.786;10.120;2023-02-23T04:08:19;13.90;;;9.70;;
11042;SDS011;5574;48.786;10.120;2023-02-23T04:11:08;12.90;;;10.43;;
11042;SDS011;5574;48.786;10.120;2023-02-23T04:13:57;15.53;;;11.23;;
11042;SDS011;5574;48.786;10.120;2023-02-23T04:16:26;12.30;;;10.27;;
11042;SDS011;5574;48.786;10.120;2023-02-23T04:18:55;15.57;;;10.50;;
11042;SDS011;5574;48.786;10.120;2023-02-23T04:21:21;12.73;;;10.13;;
11042;SDS011;5574;48.786;10.120;2023-02-23T04:23:48;15.30;;;10.60;;
11042;SDS011;5574;48.786;10.120;2023-02-23T04:26:15;13.50;;;10.33;;
11042;SDS011;5574;48.786;10.120;2023-02-23T04:28:41;11.70;;;10.30;;
11042;SDS011;5574;48.786;10.120;2023-02-23T04:31:08;14.47;;;9.90;;
11042;SDS011;5574;48.786;10.120;2023-02-23T04:33:35;12.97;;;10.20;;
11042;SDS011;5574;48.786;10.120;2023-02-23T04:36:03;13.90;;;10.33;;
11042;SDS011;5574;48.786;10.120;2023-02-23T04:38:30;15.73;;;10.63;;
11042;SDS011;5574;48.786;10.120;2023-02-23T04:40:57;15.00;;;11.03;;
11042;SDS011;5574;48.786;10.120;2023-02-23T04:43:23;13.47;;;10.67;;
11042;SDS011;5574;48.786;10.120;2023-02-23T04:45:50;13.87;;;10.07;;
11042;SDS011;5574;48.786;10.120;2023-02-23T04:48:17;14.50;;;10.50;;
11042;SDS011;5574;48.786;10.120;2023-02-23T04:50:44;16.00;;;10.33;;
11042;SDS011;5574;48.786;10.120;2023-02-23T04:53:12;12.63;;;10.67;;
11042;SDS011;5574;48.786;10.120;2023-02-23T04:55:38;13.63;;;10.57;;
11042;SDS011;5574;48.786;10.120;2023-02-23T04:58:05;15.67;;;10.63;;
11042;SDS011;5574;48.786;10.120;2023-02-23T05:00:32;17.37;;;12.03;;
11042;SDS011;5574;48.786;10.120;2023-02-23T05:02:58;17.63;;;12.10;;
11042;SDS011;5574;48.786;10.120;2023-02-23T05:05:25;16.23;;;11.73;;
11042;SDS011;5574;48.786;10.120;2023-02-23T05:07:52;15.77;;;10.87;;
11042;SDS011;5574;48.786;10.120;2023-02-23T05:10:20;15.83;;;10.47;;
11042;SDS011;5574;48.786;10.120;2023-02-23T05:12:47;14.17;;;10.63;;
11042;SDS011;5574;48.786;10.120;2023-02-23T05:15:14;13.97;;;11.00;;
11042;SDS011;5574;48.786;10.120;2023-02-23T05:17:41;14.57;;;10.60;;
11042;SDS011;5574;48.786;10.120;2023-02-23T05:20:08;14.07;;;11.00;;
11042;SDS011;5574;48.786;10.120;2023-02-23T05:22:36;19.70;;;11.57;;
11042;SDS011;5574;48.786;10.120;2023-02-23T05:25:03;15.60;;;11.27;;
11042;SDS011;5574;48.786;10.120;2023-02-23T05:27:32;15.60;;;11.07;;
11042;SDS011;5574;48.786;10.120;2023-02-23T05:29:59;16.50;;;11.27;;
11042;SDS011;5574;48.786;10.120;2023-02-23T05:32:26;15.40;;;11.80;;
11042;SDS011;5574;48.786;10.120;2023-02-23T05:34:53;17.23;;;11.50;;
11042;SDS011;5574;48.786;10.120;2023-02-23T05:37:20;14.97;;;11.50;;
11042;SDS011;5574;48.786;10.120;2023-02-23T05:39:47;16.30;;;11.37;;
11042;SDS011;5574;48.786;10.120;2023-02-23T05:42:15;15.17;;;11.77;;
11042;SDS011;5574;48.786;10.120;2023-02-23T05:44:43;15.53;;;11.30;;
11042;SDS011;5574;48.786;10.120;2023-02-23T05:47:09;14.73;;;11.83;;
11042;SDS011;5574;48.786;10.120;2023-02-23T05:49:36;14.23;;;11.43;;
11042;SDS011;5574;48.786;10.120;2023-02-23T05:52:03;16.20;;;11.37;;
11042;SDS011;5574;48.786;10.120;2023-02-23T05:54:30;17.87;;;11.10;;
11042;SDS011;5574;48.786;10.120;2023-02-23T05:56:57;16.73;;;11.93;;
11042;SDS011;5574;48.786;10.120;2023-02-23T05:59:23;15.33;;;10.97;;
11042;SDS011;5574;48.786;10.120;2023-02-23T06:01:52;16.80;;;11.90;;
11042;SDS011;5574;48.786;10.120;2023-02-23T06:04:18;14.50;;;11.40;;
11042;SDS011;5574;48.786;10.120;2023-02-23T06:06:47;16.93;;;11.33;;
11042;SDS011;5574;48.786;10.120;2023-02-23T06:09:14;16.30;;;11.83;;
11042;SDS011;5574;48.786;10.120;2023-02-23T06:11:40;16.23;;;12.47;;
11042;SDS011;5574;48.786;10.120;2023-02-23T06:14:07;14.53;;;11.60;;
11042;SDS011;5574;48.786;10.120;2023-02-23T06:16:34;18.50;;;12.33;;
11042;SDS011;5574;48.786;10.120;2023-02-23T06:19:03;18.43;;;13.23;;
11042;SDS011;5574;48.786;10.120;2023-02-23T06:21:30;18.13;;;13.77;;
11042;SDS011;5574;48.786;10.120;2023-02-23T06:23:56;18.20;;;13.43;;
11042;SDS011;5574;48.786;10.120;2023-02-23T06:26:25;19.87;;;13.33;;
11042;SDS011;5574;48.786;10.120;2023-02-23T06:28:52;20.67;;;13.37;;
11042;SDS011;5574;48.786;10.120;2023-02-23T06:31:19;17.67;;;13.37;;
11042;SDS011;5574;48.786;10.120;2023-02-23T06:33:45;15.40;;;12.80;;
11042;SDS011;5574;48.786;10.120;2023-02-23T06:36:14;18.67;;;13.40;;
11042;SDS011;5574;48.786;10.120;2023-02-23T06:38:40;20.03;;;13.50;;
11042;SDS011;5574;48.786;10.120;2023-02-23T06:41:09;16.47;;;12.77;;
11042;SDS011;5574;48.786;10.120;2023-02-23T06:43:36;16.23;;;12.27;;
11042;SDS011;5574;48.786;10.120;2023-02-23T06:46:03;17.23;;;12.50;;
11042;SDS011;5574;48.786;10.120;2023-02-23T06:48:30;14.83;;;12.07;;
11042;SDS011;5574;48.786;10.120;2023-02-23T06:50:57;16.63;;;12.47;;
11042;SDS011;5574;48.786;10.120;2023-02-23T06:53:25;17.47;;;13.03;;
11042;SDS011;5574;48.786;10.120;2023-02-23T06:55:52;18.83;;;12.97;;
11042;SDS011;5574;48.786;10.120;2023-02-23T06:58:19;15.63;;;12.57;;
11042;SDS011;5574;48.786;10.120;2023-02-23T07:00:46;19.03;;;14.30;;
11042;SDS011;5574;48.786;10.120;2023-02-23T07:03:14;17.17;;;12.83;;
11042;SDS011;5574;48.786;10.120;2023-02-23T07:05:40;17.73;;;13.17;;
11042;SDS011;5574;48.786;10.120;2023-02-23T07:08:07;21.33;;;16.37;;
11042;SDS011;5574;48.786;10.120;2023-02-23T07:10:35;20.87;;;16.03;;
11042;SDS011;5574;48.786;10.120;2023-02-23T07:13:02;18.97;;;15.00;;
11042;SDS011;5574;48.786;10.120;2023-02-23T07:15:28;18.77;;;14.57;;
11042;SDS011;5574;48.786;10.120;2023-02-23T07:17:55;18.20;;;14.17;;
11042;SDS011;5574;48.786;10.120;2023-02-23T07:20:22;19.67;;;14.23;;
11042;SDS011;5574;48.786;10.120;2023-02-23T07:22:48;22.40;;;14.40;;
11042;SDS011;5574;48.786;10.120;2023-02-23T07:25:16;18.93;;;15.13;;
11042;SDS011;5574;48.786;10.120;2023-02-23T07:27:44;18.90;;;13.90;;
11042;SDS011;5574;48.786;10.120;2023-02-23T07:30:11;21.40;;;14.20;;
11042;SDS011;5574;48.786;10.120;2023-02-23T07:32:39;20.73;;;15.17;;
11042;SDS011;5574;48.786;10.120;2023-02-23T07:35:06;19.47;;;14.93;;
11042;SDS011;5574;48.786;10.120;2023-02-23T07:37:33;18.80;;;14.77;;
11042;SDS011;5574;48.786;10.120;2023-02-23T07:39:59;21.50;;;15.70;;
11042;SDS011;5574;48.786;10.120;2023-02-23T07:42:26;24.30;;;17.87;;
11042;SDS011;5574;48.786;10.120;2023-02-23T07:44:54;22.00;;;16.63;;
11042;SDS011;5574;48.786;10.120;2023-02-23T07:47:21;20.80;;;16.83;;
11042;SDS011;5574;48.786;10.120;2023-02-23T07:49:54;23.60;;;16.70;;
11042;SDS011;5574;48.786;10.120;2023-02-23T07:52:22;22.43;;;17.57;;
11042;SDS011;5574;48.786;10.120;2023-02-23T07:54:48;20.60;;;16.80;;
11042;SDS011;5574;48.786;10.120;2023-02-23T07:57:15;22.37;;;15.87;;
11042;SDS011;5574;48.786;10.120;2023-02-23T07:59:42;20.30;;;15.43;;
11042;SDS011;5574;48.786;10.120;2023-02-23T08:02:10;19.93;;;16.03;;
11042;SDS011;5574;48.786;10.120;2023-02-23T08:04:38;20.87;;;16.10;;
11042;SDS011;5574;48.786;10.120;2023-02-23T08:07:07;19.50;;;14.93;;
11042;SDS011;5574;48.786;10.120;2023-02-23T08:09:33;20.40;;;15.67;;
11042;SDS011;5574;48.786;10.120;2023-02-23T08:12:00;23.33;;;16.10;;
11042;SDS011;5574;48.786;10.120;2023-02-23T08:14:27;23.50;;;16.47;;
11042;SDS011;5574;48.786;10.120;2023-02-23T08:16:54;23.37;;;17.57;;
11042;SDS011;5574;48.786;10.120;2023-02-23T08:19:22;24.73;;;17.17;;
11042;SDS011;5574;48.786;10.120;2023-02-23T08:21:49;21.33;;;17.00;;
11042;SDS011;5574;48.786;10.120;2023-02-23T08:24:16;25.03;;;18.40;;
11042;SDS011;5574;48.786;10.120;2023-02-23T08:26:43;21.73;;;17.13;;
11042;SDS011;5574;48.786;10.120;2023-02-23T08:29:09;21.20;;;16.93;;
11042;SDS011;5574;48.786;10.120;2023-02-23T08:31:36;22.57;;;16.57;;
11042;SDS011;5574;48.786;10.120;2023-02-23T08:34:03;24.17;;;17.47;;
11042;SDS011;5574;48.786;10.120;2023-02-23T08:36:31;24.70;;;17.57;;
11042;SDS011;5574;48.786;10.120;2023-02-23T08:38:58;25.97;;;17.63;;
11042;SDS011;5574;48.786;10.120;2023-02-23T08:41:26;22.30;;;16.90;;
11042;SDS011;5574;48.786;10.120;2023-02-23T08:43:53;23.07;;;17.70;;
11042;SDS011;5574;48.786;10.120;2023-02-23T08:46:19;22.47;;;17.17;;
11042;SDS011;5574;48.786;10.120;2023-02-23T08:48:46;21.77;;;16.80;;
11042;SDS011;5574;48.786;10.120;2023-02-23T08:51:13;19.80;;;16.13;;
11042;SDS011;5574;48.786;10.120;2023-02-23T08:53:42;23.40;;;17.17;;
11042;SDS011;5574;48.786;10.120;2023-02-23T08:56:09;20.67;;;16.90;;
11042;SDS011;5574;48.786;10.120;2023-02-23T08:58:36;21.43;;;17.20;;
11042;SDS011;5574;48.786;10.120;2023-02-23T09:01:04;27.47;;;18.23;;
11042;SDS011;5574;48.786;10.120;2023-02-23T09:03:31;23.37;;;17.83;;
11042;SDS011;5574;48.786;10.120;2023-02-23T09:06:04;22.33;;;17.57;;
11042;SDS011;5574;48.786;10.120;2023-02-23T09:08:32;24.83;;;17.93;;
11042;SDS011;5574;48.786;10.120;2023-02-23T09:11:00;20.57;;;16.97;;
11042;SDS011;5574;48.786;10.120;2023-02-23T09:13:27;22.80;;;17.53;;
11042;SDS011;5574;48.786;10.120;2023-02-23T09:15:54;22.27;;;16.20;;
11042;SDS011;5574;48.786;10.120;2023-02-23T09:18:21;24.23;;;17.60;;
11042;SDS011;5574;48.786;10.120;2023-02-23T09:20:48;21.67;;;17.97;;
11042;SDS011;5574;48.786;10.120;2023-02-23T09:23:15;20.90;;;16.30;;
11042;SDS011;5574;48.786;10.120;2023-02-23T09:25:42;22.17;;;17.07;;
11042;SDS011;5574;48.786;10.120;2023-02-23T09:28:12;21.30;;;16.53;;
11042;SDS011;5574;48.786;10.120;2023-02-23T09:30:40;20.17;;;16.13;;
11042;SDS011;5574;48.786;10.120;2023-02-23T09:33:08;24.00;;;17.83;;
11042;SDS011;5574;48.786;10.120;2023-02-23T09:35:35;22.80;;;17.13;;
11042;SDS011;5574;48.786;10.120;2023-02-23T09:38:02;21.83;;;16.57;;
11042;SDS011;5574;48.786;10.120;2023-02-23T09:40:33;24.97;;;18.50;;
11042;SDS011;5574;48.786;10.120;2023-02-23T09:43:03;23.37;;;17.03;;
11042;SDS011;5574;48.786;10.120;2023-02-23T09:45:39;22.00;;;17.17;;
11042;SDS011;5574;48.786;10.120;2023-02-23T09:48:10;24.10;;;18.17;;
11042;SDS011;5574;48.786;10.120;2023-02-23T09:50:41;23.90;;;17.90;;
11042;SDS011;5574;48.786;10.120;2023-02-23T09:53:15;22.50;;;16.97;;
11042;SDS011;5574;48.786;10.120;2023-02-23T09:55:53;22.17;;;17.83;;
11042;SDS011;5574;48.786;10.120;2023-02-23T09:58:23;25.13;;;19.10;;
11042;SDS011;5574;48.786;10.120;2023-02-23T10:00:56;24.93;;;19.77;;
11042;SDS011;5574;48.786;10.120;2023-02-23T10:03:35;25.93;;;17.73;;
11042;SDS011;5574;48.786;10.120;2023-02-23T10:06:07;21.00;;;16.47;;
11042;SDS011;5574;48.786;10.120;2023-02-23T10:08:41;22.93;;;17.77;;
11042;SDS011;5574;48.786;10.120;2023-02-23T10:11:14;23.03;;;17.67;;
11042;SDS011;5574;48.786;10.120;2023-02-23T10:13:50;22.13;;;17.43;;
11042;SDS011;5574;48.786;10.120;2023-02-23T10:16:35;19.80;;;16.90;;
11042;SDS011;5574;48.786;10.120;2023-02-23T10:19:11;21.63;;;17.03;;
11042;SDS011;5574;48.786;10.120;2023-02-23T10:21:47;22.03;;;17.83;;
11042;SDS011;5574;48.786;10.120;2023-02-23T10:24:20;23.13;;;16.97;;
11042;SDS011;5574;48.786;10.120;2023-02-23T10:26:51;18.97;;;16.43;;
11042;SDS011;5574;48.786;10.120;2023-02-23T10:29:20;21.77;;;15.90;;
11042;SDS011;5574;48.786;10.120;2023-02-23T10:31:55;20.67;;;16.60;;
11042;SDS011;5574;48.786;10.120;2023-02-23T10:34:23;21.40;;;16.33;;
11042;SDS011;5574;48.786;10.120;2023-02-23T10:36:55;20.00;;;16.40;;
11042;SDS011;5574;48.786;10.120;2023-02-23T10:39:24;18.73;;;15.80;;
11042;SDS011;5574;48.786;10.120;2023-02-23T10:41:51;18.73;;;15.10;;
11042;SDS011;5574;48.786;10.120;2023-02-23T10:44:20;20.40;;;16.13;;
11042;SDS011;5574;48.786;10.120;2023-02-23T10:46:49;22.83;;;17.00;;
11042;SDS011;5574;48.786;10.120;2023-02-23T10:49:21;21.17;;;17.03;;
11042;SDS011;5574;48.786;10.120;2023-02-23T10:51:53;20.37;;;15.83;;
11042;SDS011;5574;48.786;10.120;2023-02-23T10:57:08;20.40;;;15.70;;
11042;SDS011;5574;48.786;10.120;2023-02-23T10:59:38;17.10;;;14.27;;
11042;SDS011;5574;48.786;10.120;2023-02-23T11:04:54;17.07;;;13.53;;
11042;SDS011;5574;48.786;10.120;2023-02-23T11:07:22;17.77;;;13.80;;
11042;SDS011;5574;48.786;10.120;2023-02-23T11:09:53;17.17;;;13.37;;
11042;SDS011;5574;48.786;10.120;2023-02-23T11:12:22;15.10;;;11.83;;
11042;SDS011;5574;48.786;10.120;2023-02-23T11:14:51;15.03;;;12.20;;
11042;SDS011;5574;48.786;10.120;2023-02-23T11:17:23;14.97;;;10.73;;
11042;SDS011;5574;48.786;10.120;2023-02-23T11:20:00;12.10;;;10.47;;
11042;SDS011;5574;48.786;10.120;2023-02-23T11:22:30;8.93;;;7.33;;
11042;SDS011;5574;48.786;10.120;2023-02-23T11:25:00;8.63;;;7.07;;
11042;SDS011;5574;48.786;10.120;2023-02-23T11:27:30;7.20;;;5.90;;
11042;SDS011;5574;48.786;10.120;2023-02-23T11:29:58;5.80;;;5.30;;
11042;SDS011;5574;48.786;10.120;2023-02-23T11:32:31;6.07;;;4.90;;
11042;SDS011;5574;48.786;10.120;2023-02-23T11:35:11;5.93;;;4.67;;
11042;SDS011;5574;48.786;10.120;2023-02-23T11:37:51;5.70;;;4.70;;
11042;SDS011;5574;48.786;10.120;2023-02-23T11:40:19;6.60;;;5.23;;
11042;SDS011;5574;48.786;10.120;2023-02-23T11:42:51;4.73;;;4.13;;
11042;SDS011;5574;48.786;10.120;2023-02-23T11:45:20;4.40;;;4.00;;
11042;SDS011;5574;48.786;10.120;2023-02-23T11:47:49;5.53;;;4.00;;
11042;SDS011;5574;48.786;10.120;2023-02-23T11:50:23;4.77;;;3.47;;
11042;SDS011;5574;48.786;10.120;2023-02-23T11:52:54;4.93;;;3.30;;
11042;SDS011;5574;48.786;10.120;2023-02-23T11:55:25;4.07;;;3.17;;
11042;SDS011;5574;48.786;10.120;2023-02-23T11:58:05;6.63;;;4.20;;
11042;SDS011;5574;48.786;10.120;2023-02-23T12:00:33;5.37;;;4.40;;
11042;SDS011;5574;48.786;10.120;2023-02-23T12:03:00;6.13;;;5.03;;
11042;SDS011;5574;48.786;10.120;2023-02-23T12:05:30;6.50;;;4.93;;
11042;SDS011;5574;48.786;10.120;2023-02-23T12:08:00;8.03;;;5.57;;
11042;SDS011;5574;48.786;10.120;2023-02-23T12:10:30;6.67;;;4.53;;
11042;SDS011;5574;48.786;10.120;2023-02-23T12:13:03;6.23;;;3.67;;
11042;SDS011;5574;48.786;10.120;2023-02-23T12:15:39;5.20;;;4.00;;
11042;SDS011;5574;48.786;10.120;2023-02-23T12:18:22;4.97;;;3.43;;
11042;SDS011;5574;48.786;10.120;2023-02-23T12:21:00;5.47;;;3.33;;
11042;SDS011;5574;48.786;10.120;2023-02-23T12:23:43;4.40;;;3.13;;
11042;SDS011;5574;48.786;10.120;2023-02-23T12:26:13;5.60;;;3.03;;
11042;SDS011;5574;48.786;10.120;2023-02-23T12:28:47;4.67;;;3.30;;
11042;SDS011;5574;48.786;10.120;2023-02-23T12:31:20;6.77;;;3.30;;
11042;SDS011;5574;48.786;10.120;2023-02-23T12:33:52;8.00;;;3.73;;
11042;SDS011;5574;48.786;10.120;2023-02-23T12:36:26;7.67;;;3.17;;
11042;SDS011;5574;48.786;10.120;2023-02-23T12:38:59;4.40;;;3.30;;
11042;SDS011;5574;48.786;10.120;2023-02-23T12:41:33;4.93;;;3.00;;
11042;SDS011;5574;48.786;10.120;2023-02-23T12:44:07;5.27;;;3.30;;
11042;SDS011;5574;48.786;10.120;2023-02-23T12:46:40;5.13;;;3.23;;
11042;SDS011;5574;48.786;10.120;2023-02-23T12:49:14;7.47;;;3.23;;
11042;SDS011;5574;48.786;10.120;2023-02-23T12:51:46;6.90;;;3.30;;
11042;SDS011;5574;48.786;10.120;2023-02-23T12:54:16;5.67;;;3.03;;
11042;SDS011;5574;48.786;10.120;2023-02-23T12:56:47;4.30;;;3.03;;
11042;SDS011;5574;48.786;10.120;2023-02-23T12:59:25;7.17;;;3.10;;
11042;SDS011;5574;48.786;10.120;2023-02-23T13:02:04;6.37;;;3.37;;
11042;SDS011;5574;48.786;10.120;2023-02-23T13:04:56;7.70;;;3.47;;
11042;SDS011;5574;48.786;10.120;2023-02-23T13:07:41;10.27;;;3.40;;
11042;SDS011;5574;48.786;10.120;2023-02-23T13:10:17;5.67;;;3.40;;
11042;SDS011;5574;48.786;10.120;2023-02-23T13:12:52;7.77;;;3.20;;
11042;SDS011;5574;48.786;10.120;2023-02-23T13:15:28;7.10;;;3.40;;
11042;SDS011;5574;48.786;10.120;2023-02-23T13:18:08;7.27;;;3.30;;
11042;SDS011;5574;48.786;10.120;2023-02-23T13:20:40;5.03;;;2.90;;
11042;SDS011;5574;48.786;10.120;2023-02-23T13:23:17;6.00;;;2.97;;
11042;SDS011;5574;48.786;10.120;2023-02-23T13:25:49;5.00;;;3.00;;
11042;SDS011;5574;48.786;10.120;2023-02-23T13:28:26;10.57;;;3.50;;
11042;SDS011;5574;48.786;10.120;2023-02-23T13:31:02;6.60;;;3.43;;
11042;SDS011;5574;48.786;10.120;2023-02-23T13:33:29;8.83;;;3.47;;
11042;SDS011;5574;48.786;10.120;2023-02-23T13:35:59;18.13;;;4.20;;
11042;SDS011;5574;48.786;10.120;2023-02-23T13:38:30;7.33;;;3.20;;
11042;SDS011;5574;48.786;10.120;2023-02-23T13:41:05;5.97;;;3.50;;
11042;SDS011;5574;48.786;10.120;2023-02-23T13:43:42;11.07;;;3.70;;
11042;SDS011;5574;48.786;10.120;2023-02-23T13:46:22;6.60;;;3.10;;
11042;SDS011;5574;48.786;10.120;2023-02-23T13:48:56;8.13;;;2.37;;
11042;SDS011;5574;48.786;10.120;2023-02-23T13:51:35;5.30;;;2.77;;
11042;SDS011;5574;48.786;10.120;2023-02-23T13:54:22;7.43;;;2.80;;
11042;SDS011;5574;48.786;10.120;2023-02-23T13:56:54;4.37;;;2.43;;
11042;SDS011;5574;48.786;10.120;2023-02-23T13:59:22;4.30;;;2.60;;
11042;SDS011;5574;48.786;10.120;2023-02-23T14:01:52;9.90;;;3.27;;
11042;SDS011;5574;48.786;10.120;2023-02-23T14:04:20;5.70;;;2.50;;
11042;SDS011;5574;48.786;10.120;2023-02-23T14:06:50;7.83;;;2.60;;
11042;SDS011;5574;48.786;10.120;2023-02-23T14:09:22;5.43;;;2.70;;
11042;SDS011;5574;48.786;10.120;2023-02-23T14:11:56;16.00;;;3.90;;
11042;SDS011;5574;48.786;10.120;2023-02-23T14:14:39;5.47;;;2.97;;
11042;SDS011;5574;48.786;10.120;2023-02-23T14:17:09;12.37;;;3.23;;
11042;SDS011;5574;48.786;10.120;2023-02-23T14:20:04;5.40;;;2.50;;
11042;SDS011;5574;48.786;10.120;2023-02-23T14:25:44;8.40;;;2.90;;
11042;SDS011;5574;48.786;10.120;2023-02-23T14:28:21;4.10;;;2.83;;
11042;SDS011;5574;48.786;10.120;2023-02-23T14:30:57;8.63;;;2.80;;
11042;SDS011;5574;48.786;10.120;2023-02-23T14:33:36;6.87;;;3.10;;
11042;SDS011;5574;48.786;10.120;2023-02-23T14:36:27;5.83;;;3.23;;
11042;SDS011;5574;48.786;10.120;2023-02-23T14:39:08;4.80;;;2.40;;
11042;SDS011;5574;48.786;10.120;2023-02-23T14:41:45;6.70;;;3.13;;
11042;SDS011;5574;48.786;10.120;2023-02-23T14:44:15;5.70;;;3.00;;
11042;SDS011;5574;48.786;10.120;2023-02-23T14:46:48;7.03;;;2.87;;
11042;SDS011;5574;48.786;10.120;2023-02-23T14:49:19;6.20;;;3.07;;
11042;SDS011;5574;48.786;10.120;2023-02-23T14:51:48;16.63;;;3.87;;
11042;SDS011;5574;48.786;10.120;2023-02-23T14:54:24;13.30;;;3.37;;
11042;SDS011;5574;48.786;10.120;2023-02-23T14:56:56;23.70;;;4.80;;
11042;SDS011;5574;48.786;10.120;2023-02-23T14:59:25;9.10;;;2.93;;
11042;SDS011;5574;48.786;10.120;2023-02-23T15:01:54;11.47;;;3.23;;
11042;SDS011;5574;48.786;10.120;2023-02-23T15:04:24;6.00;;;3.17;;
11042;SDS011;5574;48.786;10.120;2023-02-23T15:06:54;21.57;;;3.70;;
11042;SDS011;5574;48.786;10.120;2023-02-23T15:09:28;3.70;;;2.47;;